Time;durP1;ratioP1;P1;durP2;ratioP2;P2;SDS_P1;SDS_P2;PMS_P1;PMS_P2;Temp;Humidity;BMP_temperature;BMP_pressure;BME280_temperature;BME280_humidity;BME280_pressure;Samples;Min_cycle;Max_cycle;Signal;HPM_P1;HPM_P2
2023/09/03 00:00:51;;;;;;;3.87;2.43;;;;;;;;;;5082557;28;20681;-65
2023/09/03 00:03:21;;;;;;;4.57;4.00;;;;;;;;;;5079925;28;20721;-65
2023/09/03 00:05:49;;;;;;;5.13;3.80;;;;;;;;;;5095516;28;20700;-66
2023/09/03 00:08:18;;;;;;;8.73;4.70;;;;;;;;;;5102286;28;20685;-66
2023/09/03 00:10:49;;;;;;;7.73;3.80;;;;;;;;;;5102693;28;20689;-66
2023/09/03 00:13:17;;;;;;;3.70;3.20;;;;;;;;;;5103146;28;20641;-65
2023/09/03 00:15:47;;;;;;;3.47;3.17;;;;;;;;;;5104159;28;20685;-64
2023/09/03 00:18:15;;;;;;;3.20;3.03;;;;;;;;;;5104212;28;20720;-67
2023/09/03 00:20:55;;;;;;;2.73;2.53;;;;;;;;;;5103488;28;20693;-65
2023/09/03 00:23:24;;;;;;;3.77;3.33;;;;;;;;;;5104207;28;20794;-64
2023/09/03 00:25:52;;;;;;;5.53;2.63;;;;;;;;;;5104356;28;20669;-65
2023/09/03 00:28:20;;;;;;;3.20;3.00;;;;;;;;;;5104867;28;20647;-64
2023/09/03 00:31:00;;;;;;;3.67;3.43;;;;;;;;;;5103445;28;20703;-64
2023/09/03 00:33:28;;;;;;;7.10;3.33;;;;;;;;;;5104940;28;20790;-65
2023/09/03 00:35:57;;;;;;;4.33;3.30;;;;;;;;;;5107080;28;20992;-65
2023/09/03 00:38:25;;;;;;;3.37;3.13;;;;;;;;;;5108027;28;20695;-68
2023/09/03 00:40:52;;;;;;;3.23;2.93;;;;;;;;;;5108226;28;20680;-64
2023/09/03 00:43:20;;;;;;;3.90;3.60;;;;;;;;;;5107920;28;20720;-65
2023/09/03 00:45:51;;;;;;;7.20;3.50;;;;;;;;;;5107863;28;20746;-64
2023/09/03 00:48:20;;;;;;;5.13;3.03;;;;;;;;;;5108168;28;20664;-64
2023/09/03 00:50:49;;;;;;;5.60;3.30;;;;;;;;;;5108558;28;21058;-65
2023/09/03 00:53:18;;;;;;;3.43;3.23;;;;;;;;;;5107891;28;20670;-65
2023/09/03 00:55:46;;;;;;;6.70;3.60;;;;;;;;;;5107806;28;20716;-64
2023/09/03 00:58:15;;;;;;;3.70;3.40;;;;;;;;;;5106525;28;20704;-64
2023/09/03 01:00:43;;;;;;;3.33;3.03;;;;;;;;;;5103779;28;21186;-67
2023/09/03 01:03:13;;;;;;;3.73;3.43;;;;;;;;;;5093660;28;20648;-67
2023/09/03 01:05:41;;;;;;;3.40;3.10;;;;;;;;;;5074209;28;20996;-67
2023/09/03 01:08:11;;;;;;;6.43;3.37;;;;;;;;;;5077741;28;21243;-67
2023/09/03 01:10:44;;;;;;;3.87;3.43;;;;;;;;;;5094436;28;20995;-67
2023/09/03 01:13:16;;;;;;;5.87;3.97;;;;;;;;;;5094707;28;20610;-67
2023/09/03 01:15:46;;;;;;;3.73;3.47;;;;;;;;;;5094580;28;20596;-67
2023/09/03 01:18:18;;;;;;;5.23;3.73;;;;;;;;;;5105639;28;20969;-68
2023/09/03 01:20:58;;;;;;;4.10;3.90;;;;;;;;;;5094231;28;21119;-67
2023/09/03 01:23:39;;;;;;;3.80;3.50;;;;;;;;;;5094322;28;20632;-67
2023/09/03 01:26:13;;;;;;;4.10;3.80;;;;;;;;;;5094456;28;20583;-68
2023/09/03 01:28:44;;;;;;;7.33;4.07;;;;;;;;;;5093261;28;20587;-67
2023/09/03 01:31:14;;;;;;;7.40;4.00;;;;;;;;;;5094058;28;20583;-68
2023/09/03 01:33:43;;;;;;;5.63;4.53;;;;;;;;;;5094437;28;20636;-68
2023/09/03 01:36:12;;;;;;;10.23;6.37;;;;;;;;;;5094178;28;20609;-67
2023/09/03 01:38:40;;;;;;;7.17;5.13;;;;;;;;;;5094332;28;20616;-67
2023/09/03 01:41:13;;;;;;;7.40;5.00;;;;;;;;;;5092479;28;20564;-67
2023/09/03 01:43:42;;;;;;;5.10;4.70;;;;;;;;;;5094350;28;20689;-67
2023/09/03 01:46:12;;;;;;;5.07;4.67;;;;;;;;;;5093554;28;20631;-67
2023/09/03 01:48:48;;;;;;;3.90;3.50;;;;;;;;;;5094325;28;20961;-67
2023/09/03 01:51:19;;;;;;;4.43;4.00;;;;;;;;;;5093658;28;20926;-67
2023/09/03 01:53:49;;;;;;;4.30;4.00;;;;;;;;;;5094137;28;21000;-67
2023/09/03 01:56:20;;;;;;;4.43;4.03;;;;;;;;;;5093059;28;21200;-67
2023/09/03 01:58:51;;;;;;;4.23;3.87;;;;;;;;;;5092916;28;20617;-67
2023/09/03 02:01:20;;;;;;;5.30;4.20;;;;;;;;;;5074356;28;20601;-67
2023/09/03 02:03:50;;;;;;;3.53;3.30;;;;;;;;;;5092339;28;21234;-67
2023/09/03 02:06:18;;;;;;;5.43;4.23;;;;;;;;;;5074172;28;20642;-67
2023/09/03 02:08:46;;;;;;;4.50;4.07;;;;;;;;;;5082894;28;20632;-67
2023/09/03 02:11:14;;;;;;;4.53;4.23;;;;;;;;;;5092411;28;20627;-67
2023/09/03 02:13:42;;;;;;;4.57;4.17;;;;;;;;;;5092771;28;20614;-67
2023/09/03 02:16:12;;;;;;;4.73;4.00;;;;;;;;;;5093052;28;20621;-67
2023/09/03 02:18:40;;;;;;;9.53;4.53;;;;;;;;;;5093351;28;20630;-65
2023/09/03 02:21:08;;;;;;;4.50;4.10;;;;;;;;;;5091683;28;20963;-65
2023/09/03 02:23:37;;;;;;;4.27;3.87;;;;;;;;;;5093132;28;20660;-67
2023/09/03 02:26:05;;;;;;;4.30;3.97;;;;;;;;;;5092687;28;20639;-67
2023/09/03 02:28:35;;;;;;;4.60;3.90;;;;;;;;;;5091693;28;20686;-67
2023/09/03 02:31:03;;;;;;;5.50;3.87;;;;;;;;;;5092880;28;20714;-67
2023/09/03 02:33:33;;;;;;;4.67;3.90;;;;;;;;;;5092514;28;20649;-67
2023/09/03 02:36:01;;;;;;;7.93;5.40;;;;;;;;;;5091666;28;20611;-67
2023/09/03 02:38:29;;;;;;;5.47;4.17;;;;;;;;;;5092485;28;21029;-67
2023/09/03 02:40:58;;;;;;;4.60;4.20;;;;;;;;;;5089759;28;21172;-68
2023/09/03 02:43:26;;;;;;;4.53;4.23;;;;;;;;;;5072664;28;20632;-67
2023/09/03 02:45:54;;;;;;;4.17;3.87;;;;;;;;;;5092363;28;20972;-67
2023/09/03 02:48:22;;;;;;;7.80;3.90;;;;;;;;;;5092004;28;21191;-67
2023/09/03 02:50:52;;;;;;;5.43;3.63;;;;;;;;;;5089436;28;21182;-67
2023/09/03 02:53:20;;;;;;;5.53;4.10;;;;;;;;;;5090473;28;20637;-67
2023/09/03 02:55:49;;;;;;;5.33;4.30;;;;;;;;;;5086774;28;20618;-67
2023/09/03 02:58:17;;;;;;;6.60;4.37;;;;;;;;;;5090367;28;20629;-67
2023/09/03 03:00:45;;;;;;;5.40;3.43;;;;;;;;;;5091380;28;20980;-67
2023/09/03 03:03:14;;;;;;;4.13;3.57;;;;;;;;;;5089620;28;20785;-67
2023/09/03 03:05:42;;;;;;;4.03;3.60;;;;;;;;;;5089843;28;20717;-67
2023/09/03 03:08:12;;;;;;;3.70;3.50;;;;;;;;;;5091400;28;20617;-67
2023/09/03 03:10:40;;;;;;;4.17;3.67;;;;;;;;;;5090634;28;20674;-67
2023/09/03 03:13:08;;;;;;;4.57;4.17;;;;;;;;;;5091725;28;20898;-67
2023/09/03 03:15:36;;;;;;;4.73;3.77;;;;;;;;;;5090005;28;20605;-67
2023/09/03 03:18:06;;;;;;;6.33;4.77;;;;;;;;;;5073813;28;20670;-67
2023/09/03 03:20:34;;;;;;;4.20;3.80;;;;;;;;;;5091813;28;20607;-67
2023/09/03 03:23:03;;;;;;;4.03;3.63;;;;;;;;;;5091251;28;20613;-67
2023/09/03 03:25:32;;;;;;;3.63;3.33;;;;;;;;;;5091177;28;20657;-67
2023/09/03 03:28:00;;;;;;;3.77;3.47;;;;;;;;;;5091282;28;20623;-67
2023/09/03 03:30:29;;;;;;;3.97;3.00;;;;;;;;;;5090423;28;20620;-67
2023/09/03 03:32:57;;;;;;;4.10;3.70;;;;;;;;;;5091520;28;20631;-67
2023/09/03 03:35:26;;;;;;;4.07;3.77;;;;;;;;;;5050657;28;20594;-67
2023/09/03 03:37:54;;;;;;;4.00;3.80;;;;;;;;;;5051278;28;20623;-67
2023/09/03 03:40:22;;;;;;;3.43;3.23;;;;;;;;;;5051297;28;20593;-67
2023/09/03 03:42:51;;;;;;;4.57;3.50;;;;;;;;;;5051961;28;20691;-67
2023/09/03 03:45:20;;;;;;;5.13;3.37;;;;;;;;;;5067123;28;20618;-67
2023/09/03 03:47:49;;;;;;;2.87;2.77;;;;;;;;;;5066615;28;20615;-65
2023/09/03 03:50:17;;;;;;;3.73;3.43;;;;;;;;;;5051445;28;20618;-65
2023/09/03 03:52:45;;;;;;;4.40;3.60;;;;;;;;;;5051012;28;20621;-65
2023/09/03 03:55:13;;;;;;;2.90;2.60;;;;;;;;;;5051161;28;20589;-65
2023/09/03 03:57:42;;;;;;;4.03;2.90;;;;;;;;;;5051699;28;20615;-66
2023/09/03 04:00:13;;;;;;;4.30;3.50;;;;;;;;;;5051308;28;20623;-67
2023/09/03 04:02:41;;;;;;;2.83;2.63;;;;;;;;;;5050435;28;20605;-68
2023/09/03 04:05:09;;;;;;;2.97;2.77;;;;;;;;;;5050041;28;20667;-67
2023/09/03 04:07:38;;;;;;;6.03;2.70;;;;;;;;;;5049722;28;20627;-65
2023/09/03 04:10:06;;;;;;;3.57;3.03;;;;;;;;;;5051351;28;20621;-65
2023/09/03 04:12:35;;;;;;;3.30;3.10;;;;;;;;;;5050698;28;20630;-65
2023/09/03 04:15:03;;;;;;;5.53;3.40;;;;;;;;;;5051009;28;20633;-65
2023/09/03 04:17:32;;;;;;;3.97;3.67;;;;;;;;;;5050144;28;20594;-65
2023/09/03 04:20:01;;;;;;;3.50;3.20;;;;;;;;;;5049468;28;21244;-65
2023/09/03 04:22:29;;;;;;;3.80;3.50;;;;;;;;;;5050734;28;21027;-65
2023/09/03 04:24:59;;;;;;;3.87;3.57;;;;;;;;;;5032950;28;20661;-65
2023/09/03 04:27:29;;;;;;;3.30;2.87;;;;;;;;;;5051106;28;20664;-65
2023/09/03 04:29:57;;;;;;;2.47;2.33;;;;;;;;;;5051234;28;20611;-65
2023/09/03 04:32:26;;;;;;;2.57;2.40;;;;;;;;;;5060303;28;20646;-65
2023/09/03 04:34:56;;;;;;;2.70;2.50;;;;;;;;;;5068601;28;20646;-66
2023/09/03 04:37:24;;;;;;;2.70;2.60;;;;;;;;;;5079034;28;20625;-67
2023/09/03 04:39:52;;;;;;;5.57;2.70;;;;;;;;;;5091139;28;20646;-66
2023/09/03 04:42:20;;;;;;;2.80;2.50;;;;;;;;;;5091025;28;20629;-66
2023/09/03 04:44:49;;;;;;;5.63;2.70;;;;;;;;;;5090302;28;20659;-66
2023/09/03 04:47:17;;;;;;;4.37;3.97;;;;;;;;;;5089756;28;20984;-66
2023/09/03 04:49:45;;;;;;;4.70;2.83;;;;;;;;;;5090635;28;20617;-66
2023/09/03 04:52:15;;;;;;;3.27;3.07;;;;;;;;;;5089768;28;20605;-66
2023/09/03 04:54:43;;;;;;;3.37;3.03;;;;;;;;;;5089403;28;20619;-68
2023/09/03 04:57:12;;;;;;;7.70;3.40;;;;;;;;;;5091080;28;20576;-68
2023/09/03 04:59:40;;;;;;;3.70;3.10;;;;;;;;;;5090968;28;20621;-69
2023/09/03 05:02:08;;;;;;;3.27;2.97;;;;;;;;;;5090129;28;20580;-68
2023/09/03 05:04:37;;;;;;;5.80;2.40;;;;;;;;;;5080369;28;20669;-66
2023/09/03 05:07:06;;;;;;;3.60;3.40;;;;;;;;;;5089722;28;20663;-66
2023/09/03 05:09:36;;;;;;;4.37;4.03;;;;;;;;;;5069171;28;20694;-65
2023/09/03 05:12:05;;;;;;;5.10;3.83;;;;;;;;;;5070809;28;20614;-66
2023/09/03 05:14:34;;;;;;;5.37;4.97;;;;;;;;;;5089630;28;20588;-66
2023/09/03 05:17:02;;;;;;;5.10;4.70;;;;;;;;;;5089631;28;20584;-66
2023/09/03 05:19:31;;;;;;;5.13;4.83;;;;;;;;;;5091966;28;20620;-66
2023/09/03 05:21:59;;;;;;;4.83;4.40;;;;;;;;;;5092288;28;20686;-66
2023/09/03 05:24:28;;;;;;;4.57;4.17;;;;;;;;;;5093170;28;20643;-66
2023/09/03 05:26:57;;;;;;;4.77;4.37;;;;;;;;;;5093767;28;20642;-66
2023/09/03 05:29:26;;;;;;;4.73;4.37;;;;;;;;;;5088909;28;20627;-66
2023/09/03 05:31:54;;;;;;;4.87;4.50;;;;;;;;;;5093186;28;20623;-66
2023/09/03 05:34:23;;;;;;;4.60;4.30;;;;;;;;;;5075773;28;20660;-66
2023/09/03 05:36:52;;;;;;;4.83;4.43;;;;;;;;;;5093448;28;20609;-66
2023/09/03 05:39:20;;;;;;;4.63;3.70;;;;;;;;;;5093238;28;20606;-66
2023/09/03 05:41:48;;;;;;;5.07;4.00;;;;;;;;;;5093897;28;20624;-66
2023/09/03 05:44:18;;;;;;;9.10;4.50;;;;;;;;;;5093986;28;20987;-68
2023/09/03 05:46:46;;;;;;;4.10;3.60;;;;;;;;;;5092709;28;20661;-68
2023/09/03 05:49:14;;;;;;;3.87;3.57;;;;;;;;;;5092715;28;20605;-69
2023/09/03 05:51:43;;;;;;;5.03;4.00;;;;;;;;;;5092395;28;20621;-69
2023/09/03 05:54:12;;;;;;;5.53;4.33;;;;;;;;;;5091851;28;20605;-69
2023/09/03 05:56:41;;;;;;;4.57;4.23;;;;;;;;;;5092201;28;20635;-68
2023/09/03 05:59:10;;;;;;;5.20;3.87;;;;;;;;;;5090890;28;20630;-68
2023/09/03 06:01:40;;;;;;;10.20;4.40;;;;;;;;;;5091396;28;20662;-68
2023/09/03 06:04:13;;;;;;;4.10;3.63;;;;;;;;;;5092091;28;20637;-69
2023/09/03 06:06:43;;;;;;;5.00;3.80;;;;;;;;;;5093208;28;20655;-68
2023/09/03 06:09:11;;;;;;;4.47;3.90;;;;;;;;;;5093143;28;20617;-66
2023/09/03 06:11:40;;;;;;;5.00;3.67;;;;;;;;;;5093376;28;20624;-66
2023/09/03 06:14:08;;;;;;;3.30;3.10;;;;;;;;;;5089620;28;20625;-66
2023/09/03 06:16:36;;;;;;;4.03;3.73;;;;;;;;;;5091677;28;20618;-66
2023/09/03 06:19:06;;;;;;;8.00;3.80;;;;;;;;;;5093101;28;20613;-66
2023/09/03 06:21:34;;;;;;;3.73;3.53;;;;;;;;;;5092862;28;20965;-66
2023/09/03 06:24:02;;;;;;;4.53;3.90;;;;;;;;;;5092936;28;20617;-66
2023/09/03 06:26:30;;;;;;;3.17;3.00;;;;;;;;;;5092570;28;20661;-66
2023/09/03 06:28:59;;;;;;;3.10;2.90;;;;;;;;;;5091350;28;20631;-66
2023/09/03 06:31:27;;;;;;;4.63;4.27;;;;;;;;;;5091680;28;21183;-66
2023/09/03 06:33:56;;;;;;;4.00;3.70;;;;;;;;;;5092569;28;20984;-65
2023/09/03 06:36:26;;;;;;;3.50;3.30;;;;;;;;;;5088551;28;21210;-66
2023/09/03 06:38:54;;;;;;;3.63;3.33;;;;;;;;;;5092810;28;20622;-68
2023/09/03 06:41:22;;;;;;;7.53;3.70;;;;;;;;;;5092411;28;20686;-67
2023/09/03 06:43:50;;;;;;;4.40;4.00;;;;;;;;;;5092442;28;21183;-67
2023/09/03 06:46:18;;;;;;;5.77;4.10;;;;;;;;;;5091207;28;20717;-67
2023/09/03 06:48:47;;;;;;;4.63;4.23;;;;;;;;;;5086527;28;20621;-69
2023/09/03 06:51:15;;;;;;;3.83;3.40;;;;;;;;;;5091897;28;20625;-67
2023/09/03 06:53:45;;;;;;;4.97;4.23;;;;;;;;;;5090182;28;21248;-67
2023/09/03 06:56:13;;;;;;;5.20;4.70;;;;;;;;;;5091811;28;20609;-67
2023/09/03 06:58:41;;;;;;;4.70;3.90;;;;;;;;;;5091621;28;20689;-67
2023/09/03 07:01:09;;;;;;;5.00;4.67;;;;;;;;;;5083027;28;20623;-67
2023/09/03 07:03:38;;;;;;;5.10;4.60;;;;;;;;;;5078697;28;20649;-67
2023/09/03 07:06:06;;;;;;;4.80;4.20;;;;;;;;;;5083647;28;20690;-67
2023/09/03 07:08:34;;;;;;;5.10;4.70;;;;;;;;;;5089861;28;20634;-66
2023/09/03 07:11:04;;;;;;;5.20;4.57;;;;;;;;;;5092200;28;20625;-66
2023/09/03 07:13:32;;;;;;;4.83;4.53;;;;;;;;;;5091699;28;20616;-67
2023/09/03 07:16:04;;;;;;;4.50;4.27;;;;;;;;;;5091815;28;20614;-66
2023/09/03 07:18:32;;;;;;;5.33;5.00;;;;;;;;;;5090015;28;20606;-66
2023/09/03 07:21:05;;;;;;;6.67;5.10;;;;;;;;;;5091591;28;20988;-67
2023/09/03 07:23:33;;;;;;;5.20;4.80;;;;;;;;;;5090879;28;20598;-66
2023/09/03 07:26:05;;;;;;;6.70;5.87;;;;;;;;;;5089892;28;20652;-66
2023/09/03 07:28:33;;;;;;;6.63;6.03;;;;;;;;;;5090063;28;20640;-66
2023/09/03 07:31:01;;;;;;;6.73;6.20;;;;;;;;;;5086919;28;20765;-66
2023/09/03 07:33:30;;;;;;;6.10;5.50;;;;;;;;;;5091060;28;20641;-66
2023/09/03 07:35:58;;;;;;;6.33;5.57;;;;;;;;;;5091073;28;21235;-67
2023/09/03 07:38:27;;;;;;;7.33;5.63;;;;;;;;;;5091632;28;20611;-66
2023/09/03 07:40:55;;;;;;;7.13;5.63;;;;;;;;;;5091272;28;20702;-67
2023/09/03 07:43:25;;;;;;;7.67;5.63;;;;;;;;;;5073337;28;20625;-67
2023/09/03 07:45:53;;;;;;;6.30;5.20;;;;;;;;;;5089885;28;20629;-67
2023/09/03 07:48:21;;;;;;;9.30;6.20;;;;;;;;;;5089732;28;20636;-65
2023/09/03 07:50:50;;;;;;;6.27;5.77;;;;;;;;;;5090019;28;20640;-66
2023/09/03 07:53:18;;;;;;;6.77;5.67;;;;;;;;;;5091318;28;20629;-66
2023/09/03 07:55:46;;;;;;;5.37;4.87;;;;;;;;;;5091118;28;20636;-66
2023/09/03 07:58:14;;;;;;;5.70;5.20;;;;;;;;;;5091084;28;21192;-65
2023/09/03 08:00:44;;;;;;;5.97;5.37;;;;;;;;;;5090001;28;20629;-67
2023/09/03 08:03:12;;;;;;;5.60;5.20;;;;;;;;;;5089092;28;21220;-68
2023/09/03 08:05:40;;;;;;;5.73;5.23;;;;;;;;;;5089510;28;20855;-67
2023/09/03 08:08:08;;;;;;;5.87;5.23;;;;;;;;;;5081714;28;21206;-68
2023/09/03 08:10:37;;;;;;;5.10;4.67;;;;;;;;;;5071990;28;20635;-68
2023/09/03 08:13:05;;;;;;;9.20;5.57;;;;;;;;;;5072278;28;20968;-69
2023/09/03 08:15:33;;;;;;;9.97;5.00;;;;;;;;;;5091142;28;20965;-69
2023/09/03 08:18:03;;;;;;;5.63;5.13;;;;;;;;;;5088919;28;21299;-68
2023/09/03 08:20:31;;;;;;;7.40;5.50;;;;;;;;;;5090635;28;20993;-67
2023/09/03 08:22:59;;;;;;;6.13;5.53;;;;;;;;;;5087715;28;21174;-67
2023/09/03 08:25:28;;;;;;;5.23;4.73;;;;;;;;;;5090401;28;20625;-68
2023/09/03 08:27:56;;;;;;;7.00;5.80;;;;;;;;;;5090203;28;20750;-68
2023/09/03 08:30:25;;;;;;;6.40;5.80;;;;;;;;;;5091509;28;20689;-67
2023/09/03 08:32:53;;;;;;;5.97;4.93;;;;;;;;;;5090639;28;20967;-68
2023/09/03 08:35:22;;;;;;;6.30;4.90;;;;;;;;;;5091057;28;20661;-68
2023/09/03 08:37:51;;;;;;;5.60;5.10;;;;;;;;;;5091433;28;21210;-69
2023/09/03 08:40:19;;;;;;;7.17;5.03;;;;;;;;;;5090022;28;20620;-70
2023/09/03 08:42:48;;;;;;;8.43;5.10;;;;;;;;;;5091384;28;20621;-70
2023/09/03 08:45:18;;;;;;;4.90;4.57;;;;;;;;;;5091341;28;20998;-67
2023/09/03 08:47:46;;;;;;;5.80;5.30;;;;;;;;;;5092395;28;21188;-69
2023/09/03 08:50:16;;;;;;;5.23;4.83;;;;;;;;;;5091447;28;20629;-68
2023/09/03 08:52:45;;;;;;;5.07;4.67;;;;;;;;;;5091496;28;20614;-69
2023/09/03 08:55:14;;;;;;;5.00;4.60;;;;;;;;;;5093634;28;20617;-69
2023/09/03 08:57:43;;;;;;;4.90;4.50;;;;;;;;;;5096001;28;20628;-69
2023/09/03 09:00:11;;;;;;;5.87;4.60;;;;;;;;;;5094632;28;20617;-69
2023/09/03 09:02:40;;;;;;;5.03;4.20;;;;;;;;;;5093522;28;20637;-69
2023/09/03 09:05:10;;;;;;;10.00;5.20;;;;;;;;;;5085435;28;20656;-68
2023/09/03 09:07:38;;;;;;;4.40;3.70;;;;;;;;;;5094796;28;20657;-67
2023/09/03 09:10:10;;;;;;;4.60;4.13;;;;;;;;;;5093214;28;20644;-68
2023/09/03 09:12:42;;;;;;;4.60;4.30;;;;;;;;;;5093646;28;20971;-68
2023/09/03 09:15:11;;;;;;;5.70;5.20;;;;;;;;;;5089674;28;20613;-69
2023/09/03 09:17:39;;;;;;;6.27;4.60;;;;;;;;;;5094512;28;20617;-69
2023/09/03 09:20:08;;;;;;;5.37;4.97;;;;;;;;;;5094550;28;20617;-68
2023/09/03 09:22:40;;;;;;;5.20;4.80;;;;;;;;;;5094790;28;20749;-68
2023/09/03 09:25:10;;;;;;;5.47;5.00;;;;;;;;;;5090169;28;20621;-70
2023/09/03 09:27:38;;;;;;;6.13;5.20;;;;;;;;;;5078339;28;20689;-67
2023/09/03 09:30:11;;;;;;;6.43;4.70;;;;;;;;;;5083966;28;20644;-68
2023/09/03 09:32:40;;;;;;;7.27;5.13;;;;;;;;;;5086552;28;20629;-68
2023/09/03 09:35:08;;;;;;;5.40;5.00;;;;;;;;;;5091725;28;20655;-68
2023/09/03 09:37:40;;;;;;;6.50;4.70;;;;;;;;;;5093342;28;20625;-68
2023/09/03 09:40:12;;;;;;;5.83;5.33;;;;;;;;;;5092935;28;20601;-69
2023/09/03 09:42:53;;;;;;;5.33;4.87;;;;;;;;;;5094168;28;20609;-67
2023/09/03 09:45:21;;;;;;;7.63;5.60;;;;;;;;;;5092946;28;20619;-69
2023/09/03 09:48:03;;;;;;;5.07;4.77;;;;;;;;;;5093542;28;20722;-69
2023/09/03 09:50:35;;;;;;;9.53;5.07;;;;;;;;;;5091717;28;20608;-69
2023/09/03 09:53:04;;;;;;;5.90;5.17;;;;;;;;;;5093063;28;20619;-67
2023/09/03 09:55:34;;;;;;;5.57;4.63;;;;;;;;;;5093113;28;20633;-69
2023/09/03 09:58:02;;;;;;;7.10;6.40;;;;;;;;;;5093200;28;20990;-69
2023/09/03 10:00:34;;;;;;;5.30;4.80;;;;;;;;;;5092997;28;20628;-69
2023/09/03 10:03:04;;;;;;;5.63;5.20;;;;;;;;;;5091604;28;20646;-67
2023/09/03 10:05:32;;;;;;;6.50;4.90;;;;;;;;;;5087452;28;20674;-66
2023/09/03 10:08:01;;;;;;;6.00;5.37;;;;;;;;;;5092237;28;20660;-69
2023/09/03 10:10:29;;;;;;;6.73;4.97;;;;;;;;;;5093160;28;20623;-69
2023/09/03 10:12:58;;;;;;;6.43;5.40;;;;;;;;;;5092694;28;20641;-69
2023/09/03 10:15:29;;;;;;;5.50;5.07;;;;;;;;;;5092051;28;20636;-69
2023/09/03 10:17:59;;;;;;;5.80;5.30;;;;;;;;;;5091345;28;20605;-67
2023/09/03 10:20:29;;;;;;;5.63;5.23;;;;;;;;;;5092326;28;20617;-67
2023/09/03 10:23:01;;;;;;;5.30;4.50;;;;;;;;;;5092130;28;20981;-68
2023/09/03 10:25:30;;;;;;;5.77;4.77;;;;;;;;;;5091636;28;20617;-69
2023/09/03 10:28:01;;;;;;;5.40;4.50;;;;;;;;;;5091586;28;20667;-69
2023/09/03 10:30:31;;;;;;;4.90;4.50;;;;;;;;;;5090936;28;20605;-70
2023/09/03 10:32:59;;;;;;;4.97;4.67;;;;;;;;;;5092639;28;20974;-68
2023/09/03 10:35:28;;;;;;;4.47;4.23;;;;;;;;;;5090948;28;20652;-69
2023/09/03 10:37:56;;;;;;;5.20;4.80;;;;;;;;;;5092187;28;20625;-68
2023/09/03 10:40:25;;;;;;;4.80;4.50;;;;;;;;;;5092302;28;20633;-68
2023/09/03 10:42:53;;;;;;;4.53;4.23;;;;;;;;;;5092439;28;20993;-70
2023/09/03 10:45:23;;;;;;;4.33;4.00;;;;;;;;;;5091965;28;20645;-69
2023/09/03 10:48:01;;;;;;;4.10;3.90;;;;;;;;;;5091289;28;21234;-68
2023/09/03 10:50:42;;;;;;;5.33;4.93;;;;;;;;;;5089686;28;21015;-68
2023/09/03 10:53:11;;;;;;;6.00;4.70;;;;;;;;;;5092485;28;20595;-69
2023/09/03 10:55:39;;;;;;;4.60;4.23;;;;;;;;;;5092721;28;20609;-69
2023/09/03 10:58:26;;;;;;;5.00;4.50;;;;;;;;;;5092361;28;20609;-69
2023/09/03 11:01:09;;;;;;;4.70;4.43;;;;;;;;;;5091641;28;20666;-67
2023/09/03 11:03:47;;;;;;;4.93;4.60;;;;;;;;;;5087842;28;20652;-67
2023/09/03 11:06:16;;;;;;;5.00;4.70;;;;;;;;;;5089167;28;20605;-68
2023/09/03 11:08:45;;;;;;;7.07;4.47;;;;;;;;;;5090494;28;20657;-68
2023/09/03 11:11:19;;;;;;;5.00;4.60;;;;;;;;;;5092433;28;20629;-68
2023/09/03 11:13:51;;;;;;;5.70;5.40;;;;;;;;;;5091732;28;20939;-68
2023/09/03 11:16:19;;;;;;;5.20;4.90;;;;;;;;;;5092555;28;20609;-70
2023/09/03 11:18:52;;;;;;;7.00;6.40;;;;;;;;;;5091373;28;20613;-69
2023/09/03 11:21:20;;;;;;;6.60;6.23;;;;;;;;;;5092256;28;21157;-68
2023/09/03 11:24:01;;;;;;;7.17;6.77;;;;;;;;;;5090193;28;20627;-68
2023/09/03 11:26:29;;;;;;;7.00;6.70;;;;;;;;;;5092019;28;20621;-69
2023/09/03 11:28:58;;;;;;;7.50;6.90;;;;;;;;;;5091227;28;21226;-68
2023/09/03 11:31:26;;;;;;;7.47;7.00;;;;;;;;;;5088146;28;20639;-68
2023/09/03 11:33:56;;;;;;;7.70;7.20;;;;;;;;;;5089549;28;20653;-69
2023/09/03 11:36:25;;;;;;;7.13;6.83;;;;;;;;;;5092341;28;20971;-70
2023/09/03 11:38:54;;;;;;;8.00;7.60;;;;;;;;;;5091904;28;20624;-67
2023/09/03 11:41:23;;;;;;;7.57;7.17;;;;;;;;;;5091805;28;21182;-69
2023/09/03 11:43:51;;;;;;;7.10;6.87;;;;;;;;;;5091752;28;20620;-68
2023/09/03 11:46:20;;;;;;;7.20;6.90;;;;;;;;;;5091624;28;20621;-68
2023/09/03 11:48:53;;;;;;;7.83;7.10;;;;;;;;;;5091052;28;20641;-68
2023/09/03 11:51:26;;;;;;;7.80;7.50;;;;;;;;;;5091555;28;20584;-67
2023/09/03 11:53:54;;;;;;;7.43;7.13;;;;;;;;;;5091689;28;20578;-69
2023/09/03 11:56:24;;;;;;;7.50;7.20;;;;;;;;;;5090038;28;20989;-68
2023/09/03 11:58:57;;;;;;;7.77;7.47;;;;;;;;;;5091712;28;20625;-70
2023/09/03 12:01:26;;;;;;;8.10;7.80;;;;;;;;;;5090996;28;20585;-68
2023/09/03 12:03:54;;;;;;;8.40;8.00;;;;;;;;;;5085076;28;21227;-69
2023/09/03 12:06:22;;;;;;;8.50;8.10;;;;;;;;;;5089077;28;20620;-69
2023/09/03 12:08:52;;;;;;;8.30;7.90;;;;;;;;;;5091679;28;20687;-67
2023/09/03 12:11:20;;;;;;;8.33;7.87;;;;;;;;;;5090032;28;20609;-68
2023/09/03 12:13:49;;;;;;;8.53;8.23;;;;;;;;;;5091503;28;20617;-68
2023/09/03 12:16:21;;;;;;;9.07;8.47;;;;;;;;;;5090683;28;21296;-67
2023/09/03 12:18:56;;;;;;;9.03;8.40;;;;;;;;;;5089891;28;21025;-67
2023/09/03 12:21:32;;;;;;;9.00;8.60;;;;;;;;;;5091119;28;20585;-68
2023/09/03 12:24:04;;;;;;;9.10;8.50;;;;;;;;;;5091471;28;20612;-67
2023/09/03 12:26:32;;;;;;;9.03;8.60;;;;;;;;;;5090898;28;20608;-67
2023/09/03 12:29:02;;;;;;;9.13;8.73;;;;;;;;;;5106912;28;20669;-67
2023/09/03 12:31:40;;;;;;;9.20;8.80;;;;;;;;;;5093759;28;20646;-68
2023/09/03 12:34:09;;;;;;;9.40;8.93;;;;;;;;;;5095090;28;20654;-69
2023/09/03 12:36:52;;;;;;;9.00;8.60;;;;;;;;;;5093699;28;20617;-67
2023/09/03 12:39:30;;;;;;;8.40;8.10;;;;;;;;;;5092942;28;20605;-67
2023/09/03 12:41:58;;;;;;;8.70;8.20;;;;;;;;;;5087178;28;20992;-67
2023/09/03 12:44:27;;;;;;;8.80;8.40;;;;;;;;;;5093298;28;20621;-67
2023/09/03 12:46:55;;;;;;;9.53;9.13;;;;;;;;;;5094565;28;20667;-66
2023/09/03 12:49:25;;;;;;;9.17;8.27;;;;;;;;;;5095066;28;20657;-68
2023/09/03 12:51:54;;;;;;;8.80;8.40;;;;;;;;;;5094762;28;20604;-68
2023/09/03 12:54:22;;;;;;;9.70;9.10;;;;;;;;;;5090492;28;20648;-68
2023/09/03 12:56:53;;;;;;;9.33;8.57;;;;;;;;;;5092110;28;20624;-68
2023/09/03 12:59:21;;;;;;;8.57;8.27;;;;;;;;;;5094965;28;20608;-68
2023/09/03 13:01:50;;;;;;;9.37;8.87;;;;;;;;;;5093707;28;21162;-68
2023/09/03 13:04:18;;;;;;;9.40;9.00;;;;;;;;;;5089679;28;20649;-68
2023/09/03 13:06:46;;;;;;;9.83;9.43;;;;;;;;;;5091087;28;20629;-68
2023/09/03 13:09:14;;;;;;;8.80;8.50;;;;;;;;;;5088333;28;21056;-68
2023/09/03 13:11:42;;;;;;;9.30;8.90;;;;;;;;;;5094770;28;20617;-68
2023/09/03 13:14:12;;;;;;;9.60;9.20;;;;;;;;;;5093939;28;20625;-68
2023/09/03 13:16:40;;;;;;;9.60;9.10;;;;;;;;;;5094144;28;20617;-68
2023/09/03 13:19:08;;;;;;;9.87;9.47;;;;;;;;;;5093659;28;20991;-68
2023/09/03 13:21:37;;;;;;;9.37;8.97;;;;;;;;;;5093857;28;20647;-68
2023/09/03 13:24:05;;;;;;;9.50;9.03;;;;;;;;;;5092898;28;20632;-68
2023/09/03 13:26:35;;;;;;;9.87;9.37;;;;;;;;;;5093741;28;20617;-69
2023/09/03 13:29:04;;;;;;;10.53;10.03;;;;;;;;;;5094154;28;20660;-68
2023/09/03 13:31:33;;;;;;;9.93;9.23;;;;;;;;;;5093372;28;20628;-68
2023/09/03 13:34:01;;;;;;;9.90;9.50;;;;;;;;;;5088356;28;20667;-69
2023/09/03 13:36:30;;;;;;;10.67;10.07;;;;;;;;;;5092816;28;20631;-68
2023/09/03 13:38:58;;;;;;;10.80;9.80;;;;;;;;;;5086062;28;21053;-69
2023/09/03 13:41:27;;;;;;;9.70;9.07;;;;;;;;;;5091370;28;20628;-67
2023/09/03 13:43:55;;;;;;;9.33;8.93;;;;;;;;;;5088464;28;20632;-67
2023/09/03 13:46:23;;;;;;;10.60;10.00;;;;;;;;;;5093660;28;20640;-68
2023/09/03 13:48:52;;;;;;;9.77;9.23;;;;;;;;;;5092890;28;20625;-68
2023/09/03 13:51:21;;;;;;;9.70;9.30;;;;;;;;;;5092004;28;20670;-68
2023/09/03 13:53:53;;;;;;;8.83;8.30;;;;;;;;;;5093499;28;20621;-67
2023/09/03 13:56:21;;;;;;;9.50;9.10;;;;;;;;;;5080738;28;21024;-67
2023/09/03 13:58:50;;;;;;;9.47;9.07;;;;;;;;;;5092693;28;21241;-67
2023/09/03 14:01:18;;;;;;;10.10;9.40;;;;;;;;;;5091957;28;20636;-68
2023/09/03 14:03:46;;;;;;;10.30;9.90;;;;;;;;;;5092255;28;20645;-68
2023/09/03 14:06:16;;;;;;;9.90;9.50;;;;;;;;;;5090499;28;20637;-68
2023/09/03 14:08:44;;;;;;;9.67;9.17;;;;;;;;;;5092627;28;20621;-67
2023/09/03 14:11:12;;;;;;;9.70;9.30;;;;;;;;;;5092530;28;21091;-68
2023/09/03 14:13:43;;;;;;;9.60;9.10;;;;;;;;;;5091747;28;20670;-67
2023/09/03 14:16:13;;;;;;;10.00;9.60;;;;;;;;;;5092469;28;20623;-67
2023/09/03 14:18:41;;;;;;;9.47;8.97;;;;;;;;;;5092839;28;20628;-68
2023/09/03 14:21:09;;;;;;;9.67;9.27;;;;;;;;;;5092403;28;21202;-68
2023/09/03 14:23:39;;;;;;;9.97;9.07;;;;;;;;;;5092292;28;20617;-68
2023/09/03 14:26:13;;;;;;;9.03;8.63;;;;;;;;;;5090688;28;20635;-67
2023/09/03 14:28:41;;;;;;;10.43;9.37;;;;;;;;;;5083049;28;20662;-67
2023/09/03 14:31:09;;;;;;;10.07;9.57;;;;;;;;;;5086260;28;21234;-68
2023/09/03 14:33:38;;;;;;;9.90;9.43;;;;;;;;;;5088191;28;20649;-68
2023/09/03 14:36:06;;;;;;;9.23;8.93;;;;;;;;;;5090173;28;20649;-68
2023/09/03 14:38:34;;;;;;;9.03;8.70;;;;;;;;;;5087244;28;20621;-68
2023/09/03 14:41:04;;;;;;;9.07;8.63;;;;;;;;;;5087598;28;20631;-68
2023/09/03 14:43:32;;;;;;;9.17;8.77;;;;;;;;;;5090856;28;20626;-67
2023/09/03 14:46:00;;;;;;;10.00;9.50;;;;;;;;;;5091884;28;20647;-67
2023/09/03 14:48:29;;;;;;;9.30;8.90;;;;;;;;;;5092020;28;20621;-68
2023/09/03 14:50:57;;;;;;;9.50;9.00;;;;;;;;;;5091078;28;20671;-68
2023/09/03 14:53:25;;;;;;;9.50;9.00;;;;;;;;;;5091708;28;20621;-68
2023/09/03 14:55:53;;;;;;;9.83;9.27;;;;;;;;;;5091873;28;20625;-68